createdAt,value
2018-08-14T00:01:39.200Z,18.80
2018-08-14T00:05:42.451Z,18.70
2018-08-14T00:09:45.648Z,18.70
2018-08-14T00:13:48.739Z,18.70
2018-08-14T00:17:51.879Z,18.70
2018-08-14T00:21:54.960Z,18.70
2018-08-14T00:25:58.076Z,18.70
2018-08-14T00:30:01.160Z,18.70
2018-08-14T00:34:04.403Z,18.80
2018-08-14T00:38:07.792Z,18.70
2018-08-14T00:42:10.899Z,18.70
2018-08-14T00:46:13.972Z,18.70
2018-08-14T00:50:17.550Z,18.80
2018-08-14T00:54:20.637Z,18.90
2018-08-14T00:58:23.843Z,18.90
2018-08-14T01:02:27.184Z,19.00
2018-08-14T01:06:30.335Z,19.00
2018-08-14T01:10:33.441Z,19.00
2018-08-14T01:14:36.664Z,19.10
2018-08-14T01:18:39.741Z,19.10
2018-08-14T01:22:44.296Z,19.10
2018-08-14T01:26:48.284Z,19.00
2018-08-14T01:30:51.395Z,19.10
2018-08-14T01:34:54.500Z,19.10
2018-08-14T01:38:57.612Z,19.10
2018-08-14T01:43:00.760Z,19.10
2018-08-14T01:47:03.964Z,19.10
2018-08-14T01:51:07.048Z,19.10
2018-08-14T01:55:10.161Z,19.00
2018-08-14T01:59:13.241Z,19.00
2018-08-14T02:03:16.494Z,19.00
2018-08-14T02:07:19.719Z,18.90
2018-08-14T02:11:22.827Z,18.90
2018-08-14T02:15:25.921Z,18.90
2018-08-14T02:19:29.044Z,18.90
2018-08-14T02:23:32.161Z,18.90
2018-08-14T02:27:35.385Z,18.90
2018-08-14T02:31:38.476Z,19.00
2018-08-14T02:35:41.659Z,19.00
2018-08-14T02:39:44.744Z,18.90
2018-08-14T02:43:47.958Z,19.00
2018-08-14T02:47:51.040Z,18.90
2018-08-14T02:51:54.268Z,18.90
2018-08-14T02:55:57.368Z,18.90
2018-08-14T03:00:00.559Z,18.80
2018-08-14T03:04:03.761Z,18.80
2018-08-14T03:08:06.892Z,18.70
2018-08-14T03:12:10.011Z,18.70
2018-08-14T03:16:13.166Z,18.60
2018-08-14T03:20:16.236Z,18.60
2018-08-14T03:24:19.444Z,18.50
2018-08-14T03:28:22.520Z,18.50
2018-08-14T03:32:25.634Z,18.50
2018-08-14T03:36:28.728Z,18.60
2018-08-14T03:40:31.961Z,18.60
2018-08-14T03:44:35.051Z,18.70
2018-08-14T03:48:38.180Z,18.70
2018-08-14T03:52:42.411Z,18.80
2018-08-14T03:56:45.520Z,18.80
2018-08-14T04:00:48.607Z,18.90
2018-08-14T04:04:51.933Z,18.90
2018-08-14T04:08:55.009Z,18.90
2018-08-14T04:12:58.176Z,18.90
2018-08-14T04:17:01.259Z,18.90
2018-08-14T04:21:04.480Z,18.90
2018-08-14T04:25:08.432Z,19.00
2018-08-14T04:29:11.624Z,19.00
2018-08-14T04:33:14.720Z,19.00
2018-08-14T04:37:17.844Z,19.00
2018-08-14T04:41:21.262Z,19.00
2018-08-14T04:45:24.400Z,19.00
2018-08-14T04:49:27.489Z,19.10
2018-08-14T04:53:30.605Z,19.20
2018-08-14T04:57:33.701Z,19.20
2018-08-14T05:01:37.123Z,19.20
2018-08-14T05:05:40.213Z,19.20
2018-08-14T05:09:43.353Z,19.30
2018-08-14T05:13:46.427Z,19.30
2018-08-14T05:17:49.539Z,19.30
2018-08-14T05:21:52.617Z,19.30
2018-08-14T05:25:55.843Z,19.30
2018-08-14T05:29:58.837Z,19.30
2018-08-14T05:34:01.960Z,19.40
2018-08-14T05:38:05.050Z,19.40
2018-08-14T05:42:08.277Z,19.50
2018-08-14T05:46:11.364Z,19.60
2018-08-14T05:50:16.341Z,19.60
2018-08-14T05:54:19.411Z,19.70
2018-08-14T05:58:22.529Z,19.70
2018-08-14T06:02:25.735Z,19.70
2018-08-14T06:06:28.844Z,19.80
2018-08-14T06:10:31.931Z,19.90
2018-08-14T06:14:35.065Z,20.10
2018-08-14T06:18:38.164Z,20.10
2018-08-14T06:22:41.924Z,20.40
2018-08-14T06:26:44.985Z,22.30
2018-08-14T06:30:48.466Z,25.10
2018-08-14T06:34:51.552Z,27.50
2018-08-14T06:38:54.700Z,29.10
2018-08-14T06:42:57.796Z,30.10
2018-08-14T06:47:02.088Z,30.20
2018-08-14T06:51:05.339Z,29.00
2018-08-14T06:55:09.667Z,27.60
2018-08-14T06:59:12.772Z,26.30
2018-08-14T07:03:15.948Z,25.20
2018-08-14T07:07:19.029Z,24.40
2018-08-14T07:11:22.283Z,23.80
2018-08-14T07:15:25.355Z,23.40
2018-08-14T07:19:28.573Z,23.00
2018-08-14T07:23:31.672Z,22.70
2018-08-14T07:27:35.225Z,22.40
2018-08-14T07:31:38.537Z,22.10
2018-08-14T07:35:41.658Z,21.90
2018-08-14T07:39:44.731Z,21.90
2018-08-14T07:43:47.851Z,21.90
2018-08-14T07:47:50.952Z,22.00
2018-08-14T07:51:54.067Z,22.00
2018-08-14T07:55:57.163Z,22.00
2018-08-14T08:00:00.301Z,22.20
2018-08-14T08:04:03.389Z,22.20
2018-08-14T08:08:06.888Z,22.40
2018-08-14T08:12:10.063Z,22.30
2018-08-14T08:16:13.186Z,22.30
2018-08-14T08:20:24.349Z,22.20
2018-08-14T08:24:27.559Z,22.20
2018-08-14T08:28:30.609Z,22.20
2018-08-14T08:32:33.943Z,22.40
2018-08-14T08:36:37.040Z,22.50
2018-08-14T08:40:40.246Z,22.70
2018-08-14T08:44:43.339Z,22.90
2018-08-14T08:48:46.466Z,23.10
2018-08-14T08:52:49.557Z,23.00
2018-08-14T08:56:52.688Z,23.20
2018-08-14T09:00:55.793Z,23.40
2018-08-14T09:04:59.497Z,23.50
2018-08-14T09:09:02.722Z,23.50
2018-08-14T09:13:06.841Z,23.60
2018-08-14T09:17:10.229Z,23.70
2018-08-14T09:21:13.393Z,23.70
2018-08-14T09:25:16.596Z,23.60
2018-08-14T09:29:19.851Z,23.30
2018-08-14T09:33:23.088Z,22.90
2018-08-14T09:37:26.212Z,22.80
2018-08-14T09:41:29.291Z,22.70
2018-08-14T09:45:32.416Z,22.70
2018-08-14T09:49:35.514Z,22.70
2018-08-14T09:53:38.692Z,22.60
2018-08-14T09:57:41.753Z,22.60
2018-08-14T10:01:50.509Z,22.80
2018-08-14T10:05:58.974Z,23.10
2018-08-14T10:10:02.112Z,23.20
2018-08-14T10:14:05.224Z,23.20
2018-08-14T10:18:10.186Z,23.40
2018-08-14T10:22:13.325Z,23.30
2018-08-14T10:26:16.529Z,23.20
2018-08-14T10:30:19.635Z,23.30
2018-08-14T10:34:22.985Z,23.30
2018-08-14T10:38:26.227Z,23.10
2018-08-14T10:42:30.225Z,23.30
2018-08-14T10:46:33.421Z,23.50
2018-08-14T10:50:36.455Z,23.80
2018-08-14T10:54:39.540Z,23.80
2018-08-14T10:58:42.762Z,24.00
2018-08-14T11:02:45.750Z,24.20
2018-08-14T11:06:48.892Z,24.30
2018-08-14T11:10:57.556Z,24.10
2018-08-14T11:15:00.990Z,24.00
2018-08-14T11:19:04.103Z,24.30
2018-08-14T11:23:07.308Z,24.40
2018-08-14T11:27:10.387Z,24.30
2018-08-14T11:31:13.530Z,24.40
2018-08-14T11:35:17.119Z,24.60
2018-08-14T11:39:20.219Z,24.60
2018-08-14T11:43:23.301Z,24.50
2018-08-14T11:47:26.511Z,24.60
2018-08-14T11:51:29.600Z,24.60
2018-08-14T11:55:32.768Z,24.60
2018-08-14T11:59:35.855Z,24.50
2018-08-14T12:03:38.950Z,24.40
2018-08-14T12:07:42.715Z,24.40
2018-08-14T12:11:45.919Z,24.50
2018-08-14T12:15:48.991Z,24.40
2018-08-14T12:19:52.100Z,24.40
2018-08-14T12:23:55.190Z,24.30
2018-08-14T12:27:58.423Z,24.10
2018-08-14T12:32:01.500Z,24.10
2018-08-14T12:36:05.451Z,24.00
2018-08-14T12:40:09.781Z,24.20
2018-08-14T12:44:13.008Z,24.20
2018-08-14T12:48:16.096Z,24.10
2018-08-14T12:52:19.327Z,24.20
2018-08-14T12:56:22.399Z,24.40
2018-08-14T13:00:28.064Z,24.40
2018-08-14T13:04:31.156Z,24.40
2018-08-14T13:08:34.329Z,24.40
2018-08-14T13:12:37.501Z,24.30
2018-08-14T13:16:40.757Z,24.30
2018-08-14T13:20:43.962Z,24.40
2018-08-14T13:24:46.992Z,24.40
2018-08-14T13:28:50.036Z,24.40
2018-08-14T13:32:53.304Z,24.10
2018-08-14T13:36:56.488Z,24.00
2018-08-14T13:40:59.688Z,23.90
2018-08-14T13:45:02.772Z,23.80
2018-08-14T13:49:05.964Z,23.80
2018-08-14T13:53:09.056Z,23.80
2018-08-14T13:57:12.194Z,23.80
2018-08-14T14:01:15.296Z,23.80
2018-08-14T14:05:18.545Z,23.70
2018-08-14T14:09:21.624Z,23.80
2018-08-14T14:13:24.883Z,23.80
2018-08-14T14:17:27.892Z,23.70
2018-08-14T14:21:31.019Z,23.60
2018-08-14T14:25:34.099Z,23.50
2018-08-14T14:29:37.303Z,23.50
2018-08-14T14:33:40.384Z,23.50
2018-08-14T14:37:43.921Z,23.70
2018-08-14T14:41:47.008Z,23.50
2018-08-14T14:45:50.132Z,23.60
2018-08-14T14:49:53.221Z,23.60
2018-08-14T14:53:56.408Z,23.50
2018-08-14T14:57:59.478Z,23.50
2018-08-14T15:02:02.673Z,23.40
2018-08-14T15:06:05.984Z,23.30
2018-08-14T15:10:09.531Z,23.40
2018-08-14T15:14:12.684Z,23.50
2018-08-14T15:18:15.784Z,23.60
2018-08-14T15:22:18.871Z,23.60
2018-08-14T15:26:22.064Z,23.80
2018-08-14T15:30:25.143Z,23.90
2018-08-14T15:34:31.779Z,23.90
2018-08-14T15:38:35.204Z,24.00
2018-08-14T15:42:38.399Z,23.80
2018-08-14T15:46:41.541Z,23.80
2018-08-14T15:50:44.644Z,23.80
2018-08-14T15:54:47.728Z,23.80
2018-08-14T15:58:51.077Z,23.80
2018-08-14T16:02:54.156Z,23.50
2018-08-14T16:06:57.347Z,23.40
2018-08-14T16:11:00.423Z,23.40
2018-08-14T16:15:03.583Z,23.40
2018-08-14T16:19:06.984Z,23.40
2018-08-14T16:23:10.204Z,23.20
2018-08-14T16:27:13.331Z,23.00
2018-08-14T16:31:16.449Z,22.80
2018-08-14T16:35:19.525Z,22.70
2018-08-14T16:39:22.732Z,22.50
2018-08-14T16:43:25.819Z,22.40
2018-08-14T16:47:28.994Z,22.30
2018-08-14T16:51:32.069Z,22.20
2018-08-14T16:55:35.172Z,22.10
2018-08-14T16:59:38.251Z,21.90
2018-08-14T17:03:41.457Z,21.80
2018-08-14T17:07:44.636Z,21.60
2018-08-14T17:11:47.825Z,21.60
2018-08-14T17:15:50.916Z,21.60
2018-08-14T17:19:53.189Z,21.60
2018-08-14T17:23:56.298Z,21.50
2018-08-14T17:27:59.832Z,21.50
2018-08-14T17:32:02.961Z,21.40
2018-08-14T17:36:06.672Z,21.30
2018-08-14T17:40:12.784Z,21.30
2018-08-14T17:44:16.023Z,21.20
2018-08-14T17:48:19.227Z,21.10
2018-08-14T17:56:25.627Z,20.80
2018-08-14T18:00:31.097Z,20.80
2018-08-14T18:04:34.201Z,20.80
2018-08-14T18:08:37.471Z,20.70
2018-08-14T18:12:40.704Z,20.60
2018-08-14T18:16:43.937Z,20.60
2018-08-14T18:20:47.127Z,20.60
2018-08-14T18:24:50.451Z,20.50
2018-08-14T18:28:53.757Z,20.50
2018-08-14T18:32:57.267Z,20.50
2018-08-14T18:37:00.824Z,20.40
2018-08-14T18:45:09.184Z,20.30
2018-08-14T18:49:12.486Z,20.20
2018-08-14T18:53:15.852Z,20.20
2018-08-14T18:57:19.060Z,20.20
2018-08-14T19:01:22.157Z,20.20
2018-08-14T19:05:25.731Z,20.20
2018-08-14T19:09:28.833Z,20.10
2018-08-14T19:13:32.072Z,20.20
2018-08-14T19:17:35.148Z,20.20
2018-08-14T19:21:38.407Z,20.20
2018-08-14T19:25:41.521Z,20.20
2018-08-14T19:29:44.788Z,20.20
2018-08-14T19:33:47.868Z,20.20
2018-08-14T19:37:51.083Z,20.20
2018-08-14T19:41:54.395Z,20.10
2018-08-14T19:45:57.500Z,20.10
2018-08-14T19:50:00.588Z,20.10
2018-08-14T19:54:03.844Z,20.10
2018-08-14T19:58:06.948Z,20.10
2018-08-14T20:02:10.204Z,20.00
2018-08-14T20:06:13.280Z,20.00
2018-08-14T20:10:16.417Z,20.00
2018-08-14T20:14:19.540Z,19.90
2018-08-14T20:18:22.680Z,19.90
2018-08-14T20:22:25.779Z,19.90
2018-08-14T20:26:28.976Z,19.90
2018-08-14T20:30:32.057Z,19.90
2018-08-14T20:34:35.193Z,19.90
2018-08-14T20:38:38.449Z,19.90
2018-08-14T20:42:41.925Z,19.90
2018-08-14T20:46:45.000Z,19.90
2018-08-14T20:50:48.195Z,19.90
2018-08-14T20:54:51.284Z,19.90
2018-08-14T20:58:54.409Z,19.90
2018-08-14T21:02:57.487Z,19.90
2018-08-14T21:07:00.696Z,19.90
2018-08-14T21:11:03.784Z,19.90
2018-08-14T21:15:08.612Z,19.80
2018-08-14T21:19:12.929Z,19.80
2018-08-14T21:23:16.133Z,19.70
2018-08-14T21:27:19.200Z,19.70
2018-08-14T21:31:22.408Z,19.70
2018-08-14T21:35:25.488Z,19.60
2018-08-14T21:39:28.588Z,19.60
2018-08-14T21:43:31.856Z,19.60
2018-08-14T21:47:35.139Z,19.60
2018-08-14T21:51:38.216Z,19.60
2018-08-14T21:55:41.337Z,19.60
2018-08-14T21:59:44.432Z,19.50
2018-08-14T22:03:47.841Z,19.50
2018-08-14T22:07:50.881Z,19.50
2018-08-14T22:11:53.997Z,19.40
2018-08-14T22:15:57.142Z,19.40
2018-08-14T22:20:00.336Z,19.40
2018-08-14T22:24:03.419Z,19.40
2018-08-14T22:28:06.604Z,19.40
2018-08-14T22:32:09.704Z,19.30
2018-08-14T22:36:12.921Z,19.30
2018-08-14T22:40:15.999Z,19.30
2018-08-14T22:44:19.204Z,19.30
2018-08-14T22:48:22.287Z,20.00
2018-08-14T22:52:25.407Z,19.30
2018-08-14T22:56:28.494Z,19.30
2018-08-14T23:00:31.621Z,19.20
2018-08-14T23:04:34.712Z,19.20
2018-08-14T23:08:38.005Z,19.10
2018-08-14T23:12:41.107Z,19.10
2018-08-14T23:16:44.259Z,19.10
2018-08-14T23:20:47.337Z,19.10
2018-08-14T23:24:50.555Z,19.10
2018-08-14T23:28:53.639Z,19.10
2018-08-14T23:32:56.747Z,19.10
2018-08-14T23:36:59.823Z,19.10
2018-08-14T23:41:02.948Z,19.10
2018-08-14T23:45:07.059Z,19.10
2018-08-14T23:49:10.192Z,19.10
2018-08-14T23:53:13.274Z,19.10
2018-08-14T23:57:16.419Z,19.10
